
<gpx xmlns="http://www.topografix.com/GPX/1/1" xmlns:gpxx="http://www.garmin.com/xmlschemas/GpxExtensions/v3" xmlns:xsi="http://www.w3.org/2001/XMLSchema-instance" version="1.1" creator="Adze - http://kobotsw.com/apps/adze" xsi:schemaLocation="http://www.topografix.com/GPX/1/1 http://www.topografix.com/GPX/1/1/gpx.xsd http://www.garmin.com/xmlschemas/GpxExtensions/v3 http://www.garmin.com/xmlschemas/GpxExtensionsv3.xsd">
    <metadata>
        <name>Untitled Document</name>
        <link href="http://www.garmin.com"></link>
        <time>2018-02-04T02:26:39.449Z</time>
    </metadata>
    <wpt lon="101.274628" lat="14.318440">
        <ele>70.000000</ele>
        <time>2017-01-28T10:19:31Z</time>
        <name>Royal Hills Golf</name>
        <sym>Lodging</sym>
        <extensions>
            <gpxx:WaypointExtension xmlns:gpxx="http://www.garmin.com/xmlschemas/GpxExtensions/v3">
                <gpxx:DisplayMode>SymbolAndName</gpxx:DisplayMode>
            </gpxx:WaypointExtension>
        </extensions>
    </wpt>
    <wpt lon="101.282071" lat="14.274540">
        <ele>17.000000</ele>
        <time>2017-01-28T08:24:22Z</time>
        <name>Water Saturday</name>
        <sym>Drinking Water</sym>
        <extensions>
            <gpxx:WaypointExtension xmlns:gpxx="http://www.garmin.com/xmlschemas/GpxExtensions/v3">
                <gpxx:DisplayMode>SymbolOnly</gpxx:DisplayMode>
            </gpxx:WaypointExtension>
        </extensions>
    </wpt>
    <trk>
        <name>Saturday</name>
        <extensions>
            <gpxx:TrackExtension xmlns:gpxx="http://www.garmin.com/xmlschemas/GpxExtensions/v3">
                <gpxx:DisplayColor>Red</gpxx:DisplayColor>
            </gpxx:TrackExtension>
        </extensions>
        <trkseg>
            <trkpt lon="101.274912" lat="14.318373">
                <ele>64.070000</ele>
                <time>2017-01-28T06:03:53Z</time>
            </trkpt>
            <trkpt lon="101.274565" lat="14.317509">
                <ele>72.240000</ele>
                <time>2017-01-28T06:04:43Z</time>
            </trkpt>
            <trkpt lon="101.274698" lat="14.317191">
                <ele>73.680000</ele>
                <time>2017-01-28T06:04:57Z</time>
            </trkpt>
            <trkpt lon="101.275711" lat="14.316695">
                <ele>74.640000</ele>
                <time>2017-01-28T06:05:31Z</time>
            </trkpt>
            <trkpt lon="101.277385" lat="14.316050">
                <ele>68.390000</ele>
                <time>2017-01-28T06:06:04Z</time>
            </trkpt>
            <trkpt lon="101.278625" lat="14.314893">
                <ele>67.910000</ele>
                <time>2017-01-28T06:06:36Z</time>
            </trkpt>
            <trkpt lon="101.280635" lat="14.313504">
                <ele>60.220000</ele>
                <time>2017-01-28T06:07:17Z</time>
            </trkpt>
            <trkpt lon="101.281449" lat="14.313593">
                <ele>54.450000</ele>
                <time>2017-01-28T06:07:32Z</time>
            </trkpt>
            <trkpt lon="101.280991" lat="14.315054">
                <ele>53.490000</ele>
                <time>2017-01-28T06:08:12Z</time>
            </trkpt>
            <trkpt lon="101.281305" lat="14.315599">
                <ele>55.410000</ele>
                <time>2017-01-28T06:08:28Z</time>
            </trkpt>
            <trkpt lon="101.281685" lat="14.316144">
                <ele>53.970000</ele>
                <time>2017-01-28T06:08:51Z</time>
            </trkpt>
            <trkpt lon="101.281712" lat="14.315554">
                <ele>51.090000</ele>
                <time>2017-01-28T06:09:20Z</time>
            </trkpt>
            <trkpt lon="101.282605" lat="14.315685">
                <ele>49.160000</ele>
                <time>2017-01-28T06:09:43Z</time>
            </trkpt>
            <trkpt lon="101.283303" lat="14.315311">
                <ele>47.720000</ele>
                <time>2017-01-28T06:10:04Z</time>
            </trkpt>
            <trkpt lon="101.283644" lat="14.316182">
                <ele>47.720000</ele>
                <time>2017-01-28T06:10:37Z</time>
            </trkpt>
            <trkpt lon="101.283148" lat="14.316775">
                <ele>48.680000</ele>
                <time>2017-01-28T06:11:00Z</time>
            </trkpt>
            <trkpt lon="101.282749" lat="14.317247">
                <ele>48.680000</ele>
                <time>2017-01-28T06:11:22Z</time>
            </trkpt>
            <trkpt lon="101.283135" lat="14.317542">
                <ele>50.130000</ele>
                <time>2017-01-28T06:11:39Z</time>
            </trkpt>
            <trkpt lon="101.283738" lat="14.317520">
                <ele>50.130000</ele>
                <time>2017-01-28T06:11:54Z</time>
            </trkpt>
            <trkpt lon="101.283655" lat="14.316946">
                <ele>46.280000</ele>
                <time>2017-01-28T06:12:14Z</time>
            </trkpt>
            <trkpt lon="101.284597" lat="14.316639">
                <ele>48.680000</ele>
                <time>2017-01-28T06:14:45Z</time>
            </trkpt>
            <trkpt lon="101.285309" lat="14.315726">
                <ele>47.720000</ele>
                <time>2017-01-28T06:15:22Z</time>
            </trkpt>
            <trkpt lon="101.285319" lat="14.314945">
                <ele>46.280000</ele>
                <time>2017-01-28T06:16:47Z</time>
            </trkpt>
            <trkpt lon="101.284425" lat="14.313356">
                <ele>47.720000</ele>
                <time>2017-01-28T06:18:46Z</time>
            </trkpt>
            <trkpt lon="101.284567" lat="14.312810">
                <ele>47.240000</ele>
                <time>2017-01-28T06:19:09Z</time>
            </trkpt>
            <trkpt lon="101.284347" lat="14.313206">
                <ele>46.280000</ele>
                <time>2017-01-28T06:19:30Z</time>
            </trkpt>
            <trkpt lon="101.284878" lat="14.314547">
                <ele>48.200000</ele>
                <time>2017-01-28T06:20:35Z</time>
            </trkpt>
            <trkpt lon="101.284022" lat="14.315116">
                <ele>46.280000</ele>
                <time>2017-01-28T06:21:20Z</time>
            </trkpt>
            <trkpt lon="101.284906" lat="14.314476">
                <ele>48.200000</ele>
                <time>2017-01-28T06:22:09Z</time>
            </trkpt>
            <trkpt lon="101.284681" lat="14.314000">
                <ele>49.650000</ele>
                <time>2017-01-28T06:22:28Z</time>
            </trkpt>
            <trkpt lon="101.284388" lat="14.313622">
                <ele>50.130000</ele>
                <time>2017-01-28T06:22:47Z</time>
            </trkpt>
            <trkpt lon="101.283941" lat="14.314324">
                <ele>44.840000</ele>
                <time>2017-01-28T06:23:16Z</time>
            </trkpt>
            <trkpt lon="101.283466" lat="14.313838">
                <ele>47.240000</ele>
                <time>2017-01-28T06:23:40Z</time>
            </trkpt>
            <trkpt lon="101.283696" lat="14.312786">
                <ele>48.680000</ele>
                <time>2017-01-28T06:24:18Z</time>
            </trkpt>
            <trkpt lon="101.283465" lat="14.312644">
                <ele>51.090000</ele>
                <time>2017-01-28T06:24:29Z</time>
            </trkpt>
            <trkpt lon="101.283295" lat="14.311274">
                <ele>48.680000</ele>
                <time>2017-01-28T06:25:15Z</time>
            </trkpt>
            <trkpt lon="101.283317" lat="14.310983">
                <ele>48.200000</ele>
                <time>2017-01-28T06:25:26Z</time>
            </trkpt>
            <trkpt lon="101.284219" lat="14.310745">
                <ele>47.720000</ele>
                <time>2017-01-28T06:25:51Z</time>
            </trkpt>
            <trkpt lon="101.284678" lat="14.310620">
                <ele>46.760000</ele>
                <time>2017-01-28T06:26:02Z</time>
            </trkpt>
            <trkpt lon="101.285346" lat="14.310285">
                <ele>45.800000</ele>
                <time>2017-01-28T06:26:19Z</time>
            </trkpt>
            <trkpt lon="101.284800" lat="14.308348">
                <ele>44.840000</ele>
                <time>2017-01-28T06:27:07Z</time>
            </trkpt>
            <trkpt lon="101.284732" lat="14.307977">
                <ele>43.880000</ele>
                <time>2017-01-28T06:27:16Z</time>
            </trkpt>
            <trkpt lon="101.286319" lat="14.308120">
                <ele>41.470000</ele>
                <time>2017-01-28T06:27:52Z</time>
            </trkpt>
            <trkpt lon="101.284650" lat="14.308066">
                <ele>50.610000</ele>
                <time>2017-01-28T06:29:22Z</time>
            </trkpt>
            <trkpt lon="101.284735" lat="14.307331">
                <ele>48.200000</ele>
                <time>2017-01-28T06:30:36Z</time>
            </trkpt>
            <trkpt lon="101.285775" lat="14.306384">
                <ele>44.840000</ele>
                <time>2017-01-28T06:31:13Z</time>
            </trkpt>
            <trkpt lon="101.286157" lat="14.306062">
                <ele>41.470000</ele>
                <time>2017-01-28T06:31:33Z</time>
            </trkpt>
            <trkpt lon="101.288858" lat="14.305807">
                <ele>37.630000</ele>
                <time>2017-01-28T06:33:03Z</time>
            </trkpt>
            <trkpt lon="101.289209" lat="14.305613">
                <ele>38.110000</ele>
                <time>2017-01-28T06:33:21Z</time>
            </trkpt>
            <trkpt lon="101.289254" lat="14.305272">
                <ele>40.510000</ele>
                <time>2017-01-28T06:33:37Z</time>
            </trkpt>
            <trkpt lon="101.289468" lat="14.305250">
                <ele>34.260000</ele>
                <time>2017-01-28T06:34:24Z</time>
            </trkpt>
            <trkpt lon="101.289559" lat="14.303837">
                <ele>36.190000</ele>
                <time>2017-01-28T06:35:21Z</time>
            </trkpt>
            <trkpt lon="101.287721" lat="14.304148">
                <ele>40.030000</ele>
                <time>2017-01-28T06:36:33Z</time>
            </trkpt>
            <trkpt lon="101.286761" lat="14.304667">
                <ele>43.880000</ele>
                <time>2017-01-28T06:37:28Z</time>
            </trkpt>
            <trkpt lon="101.285586" lat="14.302267">
                <ele>70.790000</ele>
                <time>2017-01-28T06:39:57Z</time>
            </trkpt>
            <trkpt lon="101.285277" lat="14.302180">
                <ele>66.950000</ele>
                <time>2017-01-28T06:40:48Z</time>
            </trkpt>
            <trkpt lon="101.284995" lat="14.301629">
                <ele>66.950000</ele>
                <time>2017-01-28T06:41:34Z</time>
            </trkpt>
            <trkpt lon="101.284683" lat="14.301236">
                <ele>63.580000</ele>
                <time>2017-01-28T06:41:47Z</time>
            </trkpt>
            <trkpt lon="101.284723" lat="14.299352">
                <ele>44.840000</ele>
                <time>2017-01-28T06:42:36Z</time>
            </trkpt>
            <trkpt lon="101.284813" lat="14.298025">
                <ele>33.780000</ele>
                <time>2017-01-28T06:43:03Z</time>
            </trkpt>
            <trkpt lon="101.285648" lat="14.296695">
                <ele>28.500000</ele>
                <time>2017-01-28T06:43:49Z</time>
            </trkpt>
            <trkpt lon="101.285594" lat="14.295804">
                <ele>22.730000</ele>
                <time>2017-01-28T06:44:12Z</time>
            </trkpt>
            <trkpt lon="101.282853" lat="14.295848">
                <ele>22.730000</ele>
                <time>2017-01-28T06:47:19Z</time>
            </trkpt>
            <trkpt lon="101.282239" lat="14.297191">
                <ele>24.650000</ele>
                <time>2017-01-28T06:48:26Z</time>
            </trkpt>
            <trkpt lon="101.281558" lat="14.297583">
                <ele>28.020000</ele>
                <time>2017-01-28T06:49:01Z</time>
            </trkpt>
            <trkpt lon="101.281218" lat="14.298929">
                <ele>35.230000</ele>
                <time>2017-01-28T06:50:59Z</time>
            </trkpt>
            <trkpt lon="101.280357" lat="14.299320">
                <ele>34.740000</ele>
                <time>2017-01-28T06:51:36Z</time>
            </trkpt>
            <trkpt lon="101.280098" lat="14.300207">
                <ele>37.630000</ele>
                <time>2017-01-28T06:52:15Z</time>
            </trkpt>
            <trkpt lon="101.279796" lat="14.300260">
                <ele>39.070000</ele>
                <time>2017-01-28T06:52:29Z</time>
            </trkpt>
            <trkpt lon="101.279729" lat="14.300026">
                <ele>38.590000</ele>
                <time>2017-01-28T06:52:37Z</time>
            </trkpt>
            <trkpt lon="101.277372" lat="14.299895">
                <ele>34.260000</ele>
                <time>2017-01-28T06:53:35Z</time>
            </trkpt>
            <trkpt lon="101.276860" lat="14.299397">
                <ele>32.340000</ele>
                <time>2017-01-28T06:53:52Z</time>
            </trkpt>
            <trkpt lon="101.275871" lat="14.299786">
                <ele>32.820000</ele>
                <time>2017-01-28T06:54:26Z</time>
            </trkpt>
            <trkpt lon="101.275764" lat="14.299737">
                <ele>32.340000</ele>
                <time>2017-01-28T06:54:30Z</time>
            </trkpt>
            <trkpt lon="101.274898" lat="14.298588">
                <ele>31.380000</ele>
                <time>2017-01-28T06:55:19Z</time>
            </trkpt>
            <trkpt lon="101.275097" lat="14.297817">
                <ele>30.900000</ele>
                <time>2017-01-28T06:55:40Z</time>
            </trkpt>
            <trkpt lon="101.275453" lat="14.296083">
                <ele>28.020000</ele>
                <time>2017-01-28T06:56:32Z</time>
            </trkpt>
            <trkpt lon="101.275890" lat="14.294681">
                <ele>22.730000</ele>
                <time>2017-01-28T06:57:25Z</time>
            </trkpt>
            <trkpt lon="101.275897" lat="14.294627">
                <ele>25.610000</ele>
                <time>2017-01-28T06:58:07Z</time>
            </trkpt>
            <trkpt lon="101.276441" lat="14.294264">
                <ele>26.090000</ele>
                <time>2017-01-28T06:58:47Z</time>
            </trkpt>
            <trkpt lon="101.276290" lat="14.294020">
                <ele>33.780000</ele>
                <time>2017-01-28T07:01:54Z</time>
            </trkpt>
            <trkpt lon="101.276922" lat="14.293563">
                <ele>26.090000</ele>
                <time>2017-01-28T07:02:31Z</time>
            </trkpt>
            <trkpt lon="101.279146" lat="14.293198">
                <ele>35.710000</ele>
                <time>2017-01-28T07:05:17Z</time>
            </trkpt>
            <trkpt lon="101.279496" lat="14.292764">
                <ele>29.940000</ele>
                <time>2017-01-28T07:05:37Z</time>
            </trkpt>
            <trkpt lon="101.278396" lat="14.290081">
                <ele>20.810000</ele>
                <time>2017-01-28T07:07:04Z</time>
            </trkpt>
            <trkpt lon="101.277839" lat="14.289748">
                <ele>23.690000</ele>
                <time>2017-01-28T07:07:27Z</time>
            </trkpt>
            <trkpt lon="101.277386" lat="14.288680">
                <ele>27.050000</ele>
                <time>2017-01-28T07:08:06Z</time>
            </trkpt>
            <trkpt lon="101.277148" lat="14.288673">
                <ele>27.530000</ele>
                <time>2017-01-28T07:08:15Z</time>
            </trkpt>
            <trkpt lon="101.276552" lat="14.289050">
                <ele>21.770000</ele>
                <time>2017-01-28T07:08:41Z</time>
            </trkpt>
            <trkpt lon="101.275269" lat="14.289583">
                <ele>19.840000</ele>
                <time>2017-01-28T07:10:07Z</time>
            </trkpt>
            <trkpt lon="101.274610" lat="14.289544">
                <ele>25.610000</ele>
                <time>2017-01-28T07:10:39Z</time>
            </trkpt>
            <trkpt lon="101.274321" lat="14.289234">
                <ele>31.860000</ele>
                <time>2017-01-28T07:10:58Z</time>
            </trkpt>
            <trkpt lon="101.275143" lat="14.288471">
                <ele>28.500000</ele>
                <time>2017-01-28T07:11:29Z</time>
            </trkpt>
            <trkpt lon="101.275840" lat="14.286534">
                <ele>23.690000</ele>
                <time>2017-01-28T07:12:06Z</time>
            </trkpt>
            <trkpt lon="101.276261" lat="14.283895">
                <ele>19.840000</ele>
                <time>2017-01-28T07:12:55Z</time>
            </trkpt>
            <trkpt lon="101.275042" lat="14.283819">
                <ele>23.690000</ele>
                <time>2017-01-28T07:13:27Z</time>
            </trkpt>
            <trkpt lon="101.274268" lat="14.284265">
                <ele>27.050000</ele>
                <time>2017-01-28T07:14:05Z</time>
            </trkpt>
            <trkpt lon="101.273511" lat="14.283922">
                <ele>35.230000</ele>
                <time>2017-01-28T07:14:41Z</time>
            </trkpt>
            <trkpt lon="101.271778" lat="14.282902">
                <ele>35.710000</ele>
                <time>2017-01-28T07:15:27Z</time>
            </trkpt>
            <trkpt lon="101.270903" lat="14.282818">
                <ele>32.340000</ele>
                <time>2017-01-28T07:15:44Z</time>
            </trkpt>
            <trkpt lon="101.270359" lat="14.283200">
                <ele>26.570000</ele>
                <time>2017-01-28T07:15:57Z</time>
            </trkpt>
            <trkpt lon="101.269786" lat="14.284045">
                <ele>25.130000</ele>
                <time>2017-01-28T07:16:18Z</time>
            </trkpt>
            <trkpt lon="101.269129" lat="14.284081">
                <ele>25.130000</ele>
                <time>2017-01-28T07:16:33Z</time>
            </trkpt>
            <trkpt lon="101.268283" lat="14.282979">
                <ele>24.650000</ele>
                <time>2017-01-28T07:18:20Z</time>
            </trkpt>
            <trkpt lon="101.267406" lat="14.282398">
                <ele>30.900000</ele>
                <time>2017-01-28T07:18:45Z</time>
            </trkpt>
            <trkpt lon="101.266090" lat="14.282275">
                <ele>25.610000</ele>
                <time>2017-01-28T07:19:38Z</time>
            </trkpt>
            <trkpt lon="101.264418" lat="14.284413">
                <ele>23.690000</ele>
                <time>2017-01-28T07:22:46Z</time>
            </trkpt>
            <trkpt lon="101.263542" lat="14.284284">
                <ele>33.300000</ele>
                <time>2017-01-28T07:24:03Z</time>
            </trkpt>
            <trkpt lon="101.263118" lat="14.284274">
                <ele>32.820000</ele>
                <time>2017-01-28T07:26:33Z</time>
            </trkpt>
            <trkpt lon="101.262952" lat="14.283505">
                <ele>38.110000</ele>
                <time>2017-01-28T07:27:51Z</time>
            </trkpt>
            <trkpt lon="101.264072" lat="14.281248">
                <ele>40.990000</ele>
                <time>2017-01-28T07:28:58Z</time>
            </trkpt>
            <trkpt lon="101.265231" lat="14.278009">
                <ele>37.150000</ele>
                <time>2017-01-28T07:30:23Z</time>
            </trkpt>
            <trkpt lon="101.263280" lat="14.276093">
                <ele>34.260000</ele>
                <time>2017-01-28T07:31:41Z</time>
            </trkpt>
            <trkpt lon="101.261501" lat="14.273929">
                <ele>27.050000</ele>
                <time>2017-01-28T07:32:44Z</time>
            </trkpt>
            <trkpt lon="101.261075" lat="14.273072">
                <ele>24.170000</ele>
                <time>2017-01-28T07:33:03Z</time>
            </trkpt>
            <trkpt lon="101.260765" lat="14.270421">
                <ele>16.000000</ele>
                <time>2017-01-28T07:34:08Z</time>
            </trkpt>
            <trkpt lon="101.260303" lat="14.269151">
                <ele>16.960000</ele>
                <time>2017-01-28T07:34:43Z</time>
            </trkpt>
            <trkpt lon="101.260866" lat="14.266865">
                <ele>20.320000</ele>
                <time>2017-01-28T07:35:58Z</time>
            </trkpt>
            <trkpt lon="101.260492" lat="14.268448">
                <ele>15.520000</ele>
                <time>2017-01-28T07:37:07Z</time>
            </trkpt>
            <trkpt lon="101.260860" lat="14.266864">
                <ele>17.440000</ele>
                <time>2017-01-28T07:38:25Z</time>
            </trkpt>
            <trkpt lon="101.259996" lat="14.267125">
                <ele>26.090000</ele>
                <time>2017-01-28T07:39:34Z</time>
            </trkpt>
            <trkpt lon="101.259255" lat="14.267162">
                <ele>27.530000</ele>
                <time>2017-01-28T07:40:00Z</time>
            </trkpt>
            <trkpt lon="101.257578" lat="14.267892">
                <ele>50.610000</ele>
                <time>2017-01-28T07:41:59Z</time>
            </trkpt>
            <trkpt lon="101.256281" lat="14.268566">
                <ele>64.550000</ele>
                <time>2017-01-28T07:45:33Z</time>
            </trkpt>
            <trkpt lon="101.255836" lat="14.267857">
                <ele>97.710000</ele>
                <time>2017-01-28T07:46:45Z</time>
            </trkpt>
            <trkpt lon="101.254967" lat="14.267170">
                <ele>65.510000</ele>
                <time>2017-01-28T07:48:28Z</time>
            </trkpt>
            <trkpt lon="101.254675" lat="14.266527">
                <ele>43.400000</ele>
                <time>2017-01-28T07:50:50Z</time>
            </trkpt>
            <trkpt lon="101.254789" lat="14.266030">
                <ele>40.990000</ele>
                <time>2017-01-28T07:51:24Z</time>
            </trkpt>
            <trkpt lon="101.256086" lat="14.265423">
                <ele>46.760000</ele>
                <time>2017-01-28T07:52:11Z</time>
            </trkpt>
            <trkpt lon="101.258166" lat="14.264933">
                <ele>33.780000</ele>
                <time>2017-01-28T07:52:59Z</time>
            </trkpt>
            <trkpt lon="101.258801" lat="14.264328">
                <ele>31.860000</ele>
                <time>2017-01-28T07:53:24Z</time>
            </trkpt>
            <trkpt lon="101.258932" lat="14.262957">
                <ele>25.130000</ele>
                <time>2017-01-28T07:55:00Z</time>
            </trkpt>
            <trkpt lon="101.259434" lat="14.261789">
                <ele>34.260000</ele>
                <time>2017-01-28T07:55:57Z</time>
            </trkpt>
            <trkpt lon="101.259513" lat="14.261358">
                <ele>34.260000</ele>
                <time>2017-01-28T07:56:10Z</time>
            </trkpt>
            <trkpt lon="101.259692" lat="14.261102">
                <ele>29.460000</ele>
                <time>2017-01-28T07:56:23Z</time>
            </trkpt>
            <trkpt lon="101.260276" lat="14.260711">
                <ele>23.210000</ele>
                <time>2017-01-28T07:56:50Z</time>
            </trkpt>
            <trkpt lon="101.261298" lat="14.260620">
                <ele>33.780000</ele>
                <time>2017-01-28T07:57:35Z</time>
            </trkpt>
            <trkpt lon="101.261904" lat="14.260186">
                <ele>37.150000</ele>
                <time>2017-01-28T07:58:08Z</time>
            </trkpt>
            <trkpt lon="101.264534" lat="14.259430">
                <ele>21.770000</ele>
                <time>2017-01-28T07:59:39Z</time>
            </trkpt>
            <trkpt lon="101.265305" lat="14.260679">
                <ele>16.960000</ele>
                <time>2017-01-28T08:00:30Z</time>
            </trkpt>
            <trkpt lon="101.265277" lat="14.261163">
                <ele>14.080000</ele>
                <time>2017-01-28T08:00:43Z</time>
            </trkpt>
            <trkpt lon="101.264684" lat="14.261821">
                <ele>12.150000</ele>
                <time>2017-01-28T08:01:06Z</time>
            </trkpt>
            <trkpt lon="101.262998" lat="14.262897">
                <ele>13.120000</ele>
                <time>2017-01-28T08:01:57Z</time>
            </trkpt>
            <trkpt lon="101.262850" lat="14.263283">
                <ele>10.710000</ele>
                <time>2017-01-28T08:02:08Z</time>
            </trkpt>
            <trkpt lon="101.263804" lat="14.263734">
                <ele>12.630000</ele>
                <time>2017-01-28T08:02:32Z</time>
            </trkpt>
            <trkpt lon="101.263886" lat="14.264203">
                <ele>11.190000</ele>
                <time>2017-01-28T08:02:43Z</time>
            </trkpt>
            <trkpt lon="101.263223" lat="14.264787">
                <ele>11.670000</ele>
                <time>2017-01-28T08:03:03Z</time>
            </trkpt>
            <trkpt lon="101.263003" lat="14.264976">
                <ele>11.190000</ele>
                <time>2017-01-28T08:03:10Z</time>
            </trkpt>
            <trkpt lon="101.262418" lat="14.265726">
                <ele>8.310000</ele>
                <time>2017-01-28T08:03:31Z</time>
            </trkpt>
            <trkpt lon="101.263576" lat="14.266537">
                <ele>12.630000</ele>
                <time>2017-01-28T08:04:12Z</time>
            </trkpt>
            <trkpt lon="101.264001" lat="14.267385">
                <ele>11.670000</ele>
                <time>2017-01-28T08:04:38Z</time>
            </trkpt>
            <trkpt lon="101.262933" lat="14.267652">
                <ele>11.670000</ele>
                <time>2017-01-28T08:05:11Z</time>
            </trkpt>
            <trkpt lon="101.263018" lat="14.268082">
                <ele>13.120000</ele>
                <time>2017-01-28T08:05:36Z</time>
            </trkpt>
            <trkpt lon="101.264575" lat="14.268037">
                <ele>11.670000</ele>
                <time>2017-01-28T08:09:05Z</time>
            </trkpt>
            <trkpt lon="101.264720" lat="14.268487">
                <ele>12.630000</ele>
                <time>2017-01-28T08:09:22Z</time>
            </trkpt>
            <trkpt lon="101.264503" lat="14.268781">
                <ele>16.000000</ele>
                <time>2017-01-28T08:09:38Z</time>
            </trkpt>
            <trkpt lon="101.264414" lat="14.269200">
                <ele>17.440000</ele>
                <time>2017-01-28T08:09:52Z</time>
            </trkpt>
            <trkpt lon="101.264257" lat="14.271807">
                <ele>10.710000</ele>
                <time>2017-01-28T08:12:59Z</time>
            </trkpt>
            <trkpt lon="101.266336" lat="14.272062">
                <ele>11.670000</ele>
                <time>2017-01-28T08:13:55Z</time>
            </trkpt>
            <trkpt lon="101.266949" lat="14.271009">
                <ele>13.120000</ele>
                <time>2017-01-28T08:14:34Z</time>
            </trkpt>
            <trkpt lon="101.268314" lat="14.271109">
                <ele>12.150000</ele>
                <time>2017-01-28T08:15:18Z</time>
            </trkpt>
            <trkpt lon="101.268785" lat="14.270923">
                <ele>12.630000</ele>
                <time>2017-01-28T08:15:31Z</time>
            </trkpt>
            <trkpt lon="101.269153" lat="14.270343">
                <ele>13.120000</ele>
                <time>2017-01-28T08:15:46Z</time>
            </trkpt>
            <trkpt lon="101.270190" lat="14.270042">
                <ele>12.150000</ele>
                <time>2017-01-28T08:16:10Z</time>
            </trkpt>
            <trkpt lon="101.271804" lat="14.270375">
                <ele>12.150000</ele>
                <time>2017-01-28T08:16:46Z</time>
            </trkpt>
            <trkpt lon="101.272753" lat="14.270079">
                <ele>13.120000</ele>
                <time>2017-01-28T08:17:07Z</time>
            </trkpt>
            <trkpt lon="101.273001" lat="14.269303">
                <ele>13.120000</ele>
                <time>2017-01-28T08:17:35Z</time>
            </trkpt>
            <trkpt lon="101.273527" lat="14.269220">
                <ele>16.480000</ele>
                <time>2017-01-28T08:17:56Z</time>
            </trkpt>
            <trkpt lon="101.274165" lat="14.269378">
                <ele>15.040000</ele>
                <time>2017-01-28T08:18:12Z</time>
            </trkpt>
            <trkpt lon="101.274924" lat="14.268952">
                <ele>12.150000</ele>
                <time>2017-01-28T08:18:32Z</time>
            </trkpt>
            <trkpt lon="101.276553" lat="14.270267">
                <ele>13.120000</ele>
                <time>2017-01-28T08:19:17Z</time>
            </trkpt>
            <trkpt lon="101.278181" lat="14.269683">
                <ele>15.040000</ele>
                <time>2017-01-28T08:19:54Z</time>
            </trkpt>
            <trkpt lon="101.279077" lat="14.269338">
                <ele>14.560000</ele>
                <time>2017-01-28T08:20:16Z</time>
            </trkpt>
            <trkpt lon="101.280329" lat="14.269512">
                <ele>14.560000</ele>
                <time>2017-01-28T08:20:45Z</time>
            </trkpt>
            <trkpt lon="101.280314" lat="14.272135">
                <ele>17.440000</ele>
                <time>2017-01-28T08:21:44Z</time>
            </trkpt>
            <trkpt lon="101.279526" lat="14.272578">
                <ele>15.520000</ele>
                <time>2017-01-28T08:22:07Z</time>
            </trkpt>
            <trkpt lon="101.279511" lat="14.272803">
                <ele>15.040000</ele>
                <time>2017-01-28T08:22:13Z</time>
            </trkpt>
            <trkpt lon="101.280181" lat="14.274702">
                <ele>19.360000</ele>
                <time>2017-01-28T08:23:12Z</time>
            </trkpt>
            <trkpt lon="101.284745" lat="14.274259">
                <ele>15.040000</ele>
                <time>2017-01-28T08:30:59Z</time>
            </trkpt>
            <trkpt lon="101.284004" lat="14.274029">
                <ele>12.630000</ele>
                <time>2017-01-28T08:31:27Z</time>
            </trkpt>
            <trkpt lon="101.283785" lat="14.272498">
                <ele>12.150000</ele>
                <time>2017-01-28T08:33:07Z</time>
            </trkpt>
            <trkpt lon="101.283623" lat="14.272096">
                <ele>13.120000</ele>
                <time>2017-01-28T08:33:26Z</time>
            </trkpt>
            <trkpt lon="101.283203" lat="14.271847">
                <ele>14.560000</ele>
                <time>2017-01-28T08:33:50Z</time>
            </trkpt>
            <trkpt lon="101.282844" lat="14.271631">
                <ele>13.120000</ele>
                <time>2017-01-28T08:34:22Z</time>
            </trkpt>
            <trkpt lon="101.282839" lat="14.270883">
                <ele>12.150000</ele>
                <time>2017-01-28T08:34:49Z</time>
            </trkpt>
            <trkpt lon="101.283137" lat="14.270156">
                <ele>11.190000</ele>
                <time>2017-01-28T08:35:15Z</time>
            </trkpt>
            <trkpt lon="101.284474" lat="14.269006">
                <ele>12.630000</ele>
                <time>2017-01-28T08:36:08Z</time>
            </trkpt>
            <trkpt lon="101.285023" lat="14.268126">
                <ele>12.150000</ele>
                <time>2017-01-28T08:36:38Z</time>
            </trkpt>
            <trkpt lon="101.286042" lat="14.267108">
                <ele>9.270000</ele>
                <time>2017-01-28T08:37:18Z</time>
            </trkpt>
            <trkpt lon="101.286018" lat="14.266437">
                <ele>16.960000</ele>
                <time>2017-01-28T08:38:10Z</time>
            </trkpt>
            <trkpt lon="101.286146" lat="14.266285">
                <ele>16.000000</ele>
                <time>2017-01-28T08:38:18Z</time>
            </trkpt>
            <trkpt lon="101.288170" lat="14.266008">
                <ele>15.520000</ele>
                <time>2017-01-28T08:39:14Z</time>
            </trkpt>
            <trkpt lon="101.289256" lat="14.266370">
                <ele>14.560000</ele>
                <time>2017-01-28T08:39:44Z</time>
            </trkpt>
            <trkpt lon="101.290824" lat="14.266468">
                <ele>11.190000</ele>
                <time>2017-01-28T08:40:23Z</time>
            </trkpt>
            <trkpt lon="101.291330" lat="14.266165">
                <ele>11.190000</ele>
                <time>2017-01-28T08:40:39Z</time>
            </trkpt>
            <trkpt lon="101.291431" lat="14.265772">
                <ele>13.120000</ele>
                <time>2017-01-28T08:40:50Z</time>
            </trkpt>
            <trkpt lon="101.291323" lat="14.265645">
                <ele>12.630000</ele>
                <time>2017-01-28T08:40:59Z</time>
            </trkpt>
            <trkpt lon="101.291393" lat="14.265364">
                <ele>15.520000</ele>
                <time>2017-01-28T08:42:23Z</time>
            </trkpt>
            <trkpt lon="101.290724" lat="14.264579">
                <ele>14.560000</ele>
                <time>2017-01-28T08:42:47Z</time>
            </trkpt>
            <trkpt lon="101.289026" lat="14.262867">
                <ele>14.560000</ele>
                <time>2017-01-28T08:43:42Z</time>
            </trkpt>
            <trkpt lon="101.289277" lat="14.261891">
                <ele>21.290000</ele>
                <time>2017-01-28T08:45:00Z</time>
            </trkpt>
            <trkpt lon="101.287172" lat="14.262153">
                <ele>20.320000</ele>
                <time>2017-01-28T08:46:00Z</time>
            </trkpt>
            <trkpt lon="101.286168" lat="14.262563">
                <ele>17.440000</ele>
                <time>2017-01-28T08:46:22Z</time>
            </trkpt>
            <trkpt lon="101.285709" lat="14.262432">
                <ele>18.880000</ele>
                <time>2017-01-28T08:46:33Z</time>
            </trkpt>
            <trkpt lon="101.285482" lat="14.261816">
                <ele>21.290000</ele>
                <time>2017-01-28T08:46:48Z</time>
            </trkpt>
            <trkpt lon="101.284801" lat="14.260397">
                <ele>19.360000</ele>
                <time>2017-01-28T08:47:21Z</time>
            </trkpt>
            <trkpt lon="101.285101" lat="14.259529">
                <ele>18.400000</ele>
                <time>2017-01-28T08:47:41Z</time>
            </trkpt>
            <trkpt lon="101.285631" lat="14.259151">
                <ele>18.400000</ele>
                <time>2017-01-28T08:47:55Z</time>
            </trkpt>
            <trkpt lon="101.286017" lat="14.258494">
                <ele>16.480000</ele>
                <time>2017-01-28T08:48:12Z</time>
            </trkpt>
            <trkpt lon="101.286792" lat="14.257465">
                <ele>10.230000</ele>
                <time>2017-01-28T08:48:41Z</time>
            </trkpt>
            <trkpt lon="101.287604" lat="14.256850">
                <ele>13.120000</ele>
                <time>2017-01-28T08:49:01Z</time>
            </trkpt>
            <trkpt lon="101.288399" lat="14.256615">
                <ele>17.440000</ele>
                <time>2017-01-28T08:49:17Z</time>
            </trkpt>
            <trkpt lon="101.289192" lat="14.256217">
                <ele>17.920000</ele>
                <time>2017-01-28T08:49:35Z</time>
            </trkpt>
            <trkpt lon="101.288972" lat="14.254627">
                <ele>19.360000</ele>
                <time>2017-01-28T08:50:11Z</time>
            </trkpt>
            <trkpt lon="101.288999" lat="14.254419">
                <ele>17.920000</ele>
                <time>2017-01-28T08:50:23Z</time>
            </trkpt>
            <trkpt lon="101.289977" lat="14.255154">
                <ele>31.860000</ele>
                <time>2017-01-28T08:51:28Z</time>
            </trkpt>
            <trkpt lon="101.288994" lat="14.254553">
                <ele>21.290000</ele>
                <time>2017-01-28T08:54:53Z</time>
            </trkpt>
            <trkpt lon="101.289354" lat="14.252949">
                <ele>16.960000</ele>
                <time>2017-01-28T08:55:59Z</time>
            </trkpt>
            <trkpt lon="101.289529" lat="14.252391">
                <ele>16.960000</ele>
                <time>2017-01-28T08:56:12Z</time>
            </trkpt>
            <trkpt lon="101.290032" lat="14.252179">
                <ele>17.440000</ele>
                <time>2017-01-28T08:56:25Z</time>
            </trkpt>
            <trkpt lon="101.290504" lat="14.251621">
                <ele>16.960000</ele>
                <time>2017-01-28T08:56:42Z</time>
            </trkpt>
            <trkpt lon="101.292298" lat="14.250729">
                <ele>17.920000</ele>
                <time>2017-01-28T08:57:24Z</time>
            </trkpt>
            <trkpt lon="101.293633" lat="14.250338">
                <ele>17.440000</ele>
                <time>2017-01-28T08:57:54Z</time>
            </trkpt>
            <trkpt lon="101.293739" lat="14.249888">
                <ele>13.600000</ele>
                <time>2017-01-28T08:58:05Z</time>
            </trkpt>
            <trkpt lon="101.300936" lat="14.250093">
                <ele>27.530000</ele>
                <time>2017-01-28T09:00:50Z</time>
            </trkpt>
            <trkpt lon="101.301879" lat="14.252946">
                <ele>52.050000</ele>
                <time>2017-01-28T09:02:48Z</time>
            </trkpt>
            <trkpt lon="101.301917" lat="14.253187">
                <ele>52.530000</ele>
                <time>2017-01-28T09:03:03Z</time>
            </trkpt>
            <trkpt lon="101.302346" lat="14.255904">
                <ele>51.570000</ele>
                <time>2017-01-28T09:05:03Z</time>
            </trkpt>
            <trkpt lon="101.302682" lat="14.256277">
                <ele>51.570000</ele>
                <time>2017-01-28T09:05:18Z</time>
            </trkpt>
            <trkpt lon="101.303198" lat="14.256706">
                <ele>44.840000</ele>
                <time>2017-01-28T09:05:39Z</time>
            </trkpt>
            <trkpt lon="101.303246" lat="14.257355">
                <ele>36.670000</ele>
                <time>2017-01-28T09:06:03Z</time>
            </trkpt>
            <trkpt lon="101.303243" lat="14.257450">
                <ele>29.460000</ele>
                <time>2017-01-28T09:06:28Z</time>
            </trkpt>
            <trkpt lon="101.301341" lat="14.257891">
                <ele>26.090000</ele>
                <time>2017-01-28T09:07:16Z</time>
            </trkpt>
            <trkpt lon="101.301264" lat="14.258348">
                <ele>22.250000</ele>
                <time>2017-01-28T09:07:29Z</time>
            </trkpt>
            <trkpt lon="101.301049" lat="14.259763">
                <ele>19.360000</ele>
                <time>2017-01-28T09:08:14Z</time>
            </trkpt>
            <trkpt lon="101.300553" lat="14.260260">
                <ele>18.880000</ele>
                <time>2017-01-28T09:08:29Z</time>
            </trkpt>
            <trkpt lon="101.299623" lat="14.260982">
                <ele>15.040000</ele>
                <time>2017-01-28T09:08:55Z</time>
            </trkpt>
            <trkpt lon="101.296455" lat="14.261311">
                <ele>15.520000</ele>
                <time>2017-01-28T09:09:59Z</time>
            </trkpt>
            <trkpt lon="101.295473" lat="14.260866">
                <ele>18.400000</ele>
                <time>2017-01-28T09:10:29Z</time>
            </trkpt>
            <trkpt lon="101.295454" lat="14.260881">
                <ele>18.400000</ele>
                <time>2017-01-28T09:10:30Z</time>
            </trkpt>
            <trkpt lon="101.295692" lat="14.262295">
                <ele>15.520000</ele>
                <time>2017-01-28T09:11:10Z</time>
            </trkpt>
            <trkpt lon="101.296492" lat="14.262425">
                <ele>13.600000</ele>
                <time>2017-01-28T09:11:32Z</time>
            </trkpt>
            <trkpt lon="101.297280" lat="14.263128">
                <ele>12.150000</ele>
                <time>2017-01-28T09:11:59Z</time>
            </trkpt>
            <trkpt lon="101.296986" lat="14.265305">
                <ele>13.120000</ele>
                <time>2017-01-28T09:12:54Z</time>
            </trkpt>
            <trkpt lon="101.296615" lat="14.265961">
                <ele>13.600000</ele>
                <time>2017-01-28T09:13:13Z</time>
            </trkpt>
            <trkpt lon="101.295836" lat="14.265835">
                <ele>11.670000</ele>
                <time>2017-01-28T09:13:35Z</time>
            </trkpt>
            <trkpt lon="101.295114" lat="14.266688">
                <ele>11.190000</ele>
                <time>2017-01-28T09:14:03Z</time>
            </trkpt>
            <trkpt lon="101.294669" lat="14.267108">
                <ele>10.710000</ele>
                <time>2017-01-28T09:14:17Z</time>
            </trkpt>
            <trkpt lon="101.294416" lat="14.268158">
                <ele>11.670000</ele>
                <time>2017-01-28T09:14:45Z</time>
            </trkpt>
            <trkpt lon="101.294220" lat="14.268205">
                <ele>11.670000</ele>
                <time>2017-01-28T09:14:50Z</time>
            </trkpt>
            <trkpt lon="101.293601" lat="14.268264">
                <ele>14.080000</ele>
                <time>2017-01-28T09:15:10Z</time>
            </trkpt>
            <trkpt lon="101.293173" lat="14.270660">
                <ele>16.480000</ele>
                <time>2017-01-28T09:16:10Z</time>
            </trkpt>
            <trkpt lon="101.294415" lat="14.275473">
                <ele>16.480000</ele>
                <time>2017-01-28T09:18:09Z</time>
            </trkpt>
            <trkpt lon="101.295928" lat="14.277392">
                <ele>16.960000</ele>
                <time>2017-01-28T09:18:57Z</time>
            </trkpt>
            <trkpt lon="101.295977" lat="14.277496">
                <ele>16.480000</ele>
                <time>2017-01-28T09:19:00Z</time>
            </trkpt>
            <trkpt lon="101.294102" lat="14.279105">
                <ele>14.080000</ele>
                <time>2017-01-28T09:19:57Z</time>
            </trkpt>
            <trkpt lon="101.293452" lat="14.279206">
                <ele>14.560000</ele>
                <time>2017-01-28T09:20:12Z</time>
            </trkpt>
            <trkpt lon="101.293340" lat="14.279292">
                <ele>13.120000</ele>
                <time>2017-01-28T09:20:16Z</time>
            </trkpt>
            <trkpt lon="101.292751" lat="14.280319">
                <ele>13.120000</ele>
                <time>2017-01-28T09:20:47Z</time>
            </trkpt>
            <trkpt lon="101.292131" lat="14.280312">
                <ele>14.560000</ele>
                <time>2017-01-28T09:21:03Z</time>
            </trkpt>
            <trkpt lon="101.292057" lat="14.280676">
                <ele>17.920000</ele>
                <time>2017-01-28T09:21:14Z</time>
            </trkpt>
            <trkpt lon="101.292049" lat="14.281505">
                <ele>16.960000</ele>
                <time>2017-01-28T09:21:39Z</time>
            </trkpt>
            <trkpt lon="101.292516" lat="14.281468">
                <ele>17.440000</ele>
                <time>2017-01-28T09:22:00Z</time>
            </trkpt>
            <trkpt lon="101.293334" lat="14.281912">
                <ele>15.520000</ele>
                <time>2017-01-28T09:22:32Z</time>
            </trkpt>
            <trkpt lon="101.294191" lat="14.282422">
                <ele>16.480000</ele>
                <time>2017-01-28T09:22:55Z</time>
            </trkpt>
            <trkpt lon="101.295197" lat="14.283583">
                <ele>15.520000</ele>
                <time>2017-01-28T09:23:36Z</time>
            </trkpt>
            <trkpt lon="101.293342" lat="14.284402">
                <ele>15.040000</ele>
                <time>2017-01-28T09:24:25Z</time>
            </trkpt>
            <trkpt lon="101.293466" lat="14.284893">
                <ele>17.920000</ele>
                <time>2017-01-28T09:24:42Z</time>
            </trkpt>
            <trkpt lon="101.292203" lat="14.285918">
                <ele>14.080000</ele>
                <time>2017-01-28T09:25:27Z</time>
            </trkpt>
            <trkpt lon="101.292063" lat="14.286952">
                <ele>18.400000</ele>
                <time>2017-01-28T09:26:01Z</time>
            </trkpt>
            <trkpt lon="101.290479" lat="14.286738">
                <ele>16.000000</ele>
                <time>2017-01-28T09:26:57Z</time>
            </trkpt>
            <trkpt lon="101.289950" lat="14.287819">
                <ele>18.400000</ele>
                <time>2017-01-28T09:28:12Z</time>
            </trkpt>
            <trkpt lon="101.288980" lat="14.288864">
                <ele>11.670000</ele>
                <time>2017-01-28T09:30:47Z</time>
            </trkpt>
            <trkpt lon="101.288999" lat="14.289101">
                <ele>12.630000</ele>
                <time>2017-01-28T09:30:54Z</time>
            </trkpt>
            <trkpt lon="101.290673" lat="14.289222">
                <ele>14.080000</ele>
                <time>2017-01-28T09:31:35Z</time>
            </trkpt>
            <trkpt lon="101.292033" lat="14.290509">
                <ele>19.360000</ele>
                <time>2017-01-28T09:32:15Z</time>
            </trkpt>
            <trkpt lon="101.293364" lat="14.291702">
                <ele>18.880000</ele>
                <time>2017-01-28T09:32:56Z</time>
            </trkpt>
            <trkpt lon="101.293577" lat="14.293428">
                <ele>23.690000</ele>
                <time>2017-01-28T09:33:42Z</time>
            </trkpt>
            <trkpt lon="101.293805" lat="14.294095">
                <ele>21.290000</ele>
                <time>2017-01-28T09:34:03Z</time>
            </trkpt>
            <trkpt lon="101.295264" lat="14.293635">
                <ele>19.840000</ele>
                <time>2017-01-28T09:34:42Z</time>
            </trkpt>
            <trkpt lon="101.295777" lat="14.294021">
                <ele>17.920000</ele>
                <time>2017-01-28T09:34:59Z</time>
            </trkpt>
            <trkpt lon="101.296363" lat="14.294000">
                <ele>16.480000</ele>
                <time>2017-01-28T09:35:14Z</time>
            </trkpt>
            <trkpt lon="101.296680" lat="14.294095">
                <ele>16.480000</ele>
                <time>2017-01-28T09:35:22Z</time>
            </trkpt>
            <trkpt lon="101.296867" lat="14.294604">
                <ele>16.960000</ele>
                <time>2017-01-28T09:35:37Z</time>
            </trkpt>
            <trkpt lon="101.296799" lat="14.294680">
                <ele>16.960000</ele>
                <time>2017-01-28T09:35:41Z</time>
            </trkpt>
            <trkpt lon="101.296612" lat="14.294949">
                <ele>17.440000</ele>
                <time>2017-01-28T09:36:36Z</time>
            </trkpt>
            <trkpt lon="101.297590" lat="14.295027">
                <ele>16.000000</ele>
                <time>2017-01-28T09:39:14Z</time>
            </trkpt>
            <trkpt lon="101.298479" lat="14.294421">
                <ele>17.920000</ele>
                <time>2017-01-28T09:39:56Z</time>
            </trkpt>
            <trkpt lon="101.298810" lat="14.294424">
                <ele>17.920000</ele>
                <time>2017-01-28T09:40:08Z</time>
            </trkpt>
            <trkpt lon="101.301097" lat="14.295478">
                <ele>24.650000</ele>
                <time>2017-01-28T09:41:33Z</time>
            </trkpt>
            <trkpt lon="101.301276" lat="14.295630">
                <ele>22.250000</ele>
                <time>2017-01-28T09:41:41Z</time>
            </trkpt>
            <trkpt lon="101.301735" lat="14.296378">
                <ele>19.840000</ele>
                <time>2017-01-28T09:42:08Z</time>
            </trkpt>
            <trkpt lon="101.301679" lat="14.299060">
                <ele>22.250000</ele>
                <time>2017-01-28T09:43:23Z</time>
            </trkpt>
            <trkpt lon="101.301972" lat="14.300691">
                <ele>20.810000</ele>
                <time>2017-01-28T09:44:06Z</time>
            </trkpt>
            <trkpt lon="101.301166" lat="14.300927">
                <ele>22.730000</ele>
                <time>2017-01-28T09:44:28Z</time>
            </trkpt>
            <trkpt lon="101.300468" lat="14.301597">
                <ele>23.210000</ele>
                <time>2017-01-28T09:44:55Z</time>
            </trkpt>
            <trkpt lon="101.299708" lat="14.302130">
                <ele>23.210000</ele>
                <time>2017-01-28T09:45:22Z</time>
            </trkpt>
            <trkpt lon="101.297885" lat="14.302012">
                <ele>27.050000</ele>
                <time>2017-01-28T09:46:10Z</time>
            </trkpt>
            <trkpt lon="101.293678" lat="14.302817">
                <ele>28.980000</ele>
                <time>2017-01-28T09:47:48Z</time>
            </trkpt>
            <trkpt lon="101.293481" lat="14.306663">
                <ele>31.860000</ele>
                <time>2017-01-28T09:49:50Z</time>
            </trkpt>
            <trkpt lon="101.292980" lat="14.306860">
                <ele>31.860000</ele>
                <time>2017-01-28T09:50:12Z</time>
            </trkpt>
            <trkpt lon="101.292526" lat="14.307712">
                <ele>31.860000</ele>
                <time>2017-01-28T09:50:32Z</time>
            </trkpt>
            <trkpt lon="101.291867" lat="14.307926">
                <ele>33.300000</ele>
                <time>2017-01-28T09:50:47Z</time>
            </trkpt>
            <trkpt lon="101.291476" lat="14.308302">
                <ele>32.340000</ele>
                <time>2017-01-28T09:51:06Z</time>
            </trkpt>
            <trkpt lon="101.291826" lat="14.308002">
                <ele>31.860000</ele>
                <time>2017-01-28T09:53:09Z</time>
            </trkpt>
            <trkpt lon="101.292013" lat="14.308526">
                <ele>31.860000</ele>
                <time>2017-01-28T09:53:31Z</time>
            </trkpt>
            <trkpt lon="101.291153" lat="14.309340">
                <ele>40.030000</ele>
                <time>2017-01-28T09:54:28Z</time>
            </trkpt>
            <trkpt lon="101.288604" lat="14.310653">
                <ele>38.590000</ele>
                <time>2017-01-28T09:55:57Z</time>
            </trkpt>
            <trkpt lon="101.288395" lat="14.312366">
                <ele>38.590000</ele>
                <time>2017-01-28T09:56:58Z</time>
            </trkpt>
            <trkpt lon="101.287826" lat="14.313009">
                <ele>39.070000</ele>
                <time>2017-01-28T09:57:26Z</time>
            </trkpt>
            <trkpt lon="101.287291" lat="14.312936">
                <ele>42.920000</ele>
                <time>2017-01-28T09:57:48Z</time>
            </trkpt>
            <trkpt lon="101.287219" lat="14.312681">
                <ele>41.470000</ele>
                <time>2017-01-28T09:58:29Z</time>
            </trkpt>
            <trkpt lon="101.286324" lat="14.313261">
                <ele>42.920000</ele>
                <time>2017-01-28T09:59:53Z</time>
            </trkpt>
            <trkpt lon="101.286343" lat="14.313547">
                <ele>42.440000</ele>
                <time>2017-01-28T10:00:03Z</time>
            </trkpt>
            <trkpt lon="101.287033" lat="14.314379">
                <ele>40.510000</ele>
                <time>2017-01-28T10:00:35Z</time>
            </trkpt>
            <trkpt lon="101.286931" lat="14.316415">
                <ele>44.360000</ele>
                <time>2017-01-28T10:01:48Z</time>
            </trkpt>
            <trkpt lon="101.285227" lat="14.315853">
                <ele>42.440000</ele>
                <time>2017-01-28T10:02:37Z</time>
            </trkpt>
            <trkpt lon="101.283872" lat="14.316752">
                <ele>46.280000</ele>
                <time>2017-01-28T10:03:34Z</time>
            </trkpt>
            <trkpt lon="101.283672" lat="14.316925">
                <ele>42.440000</ele>
                <time>2017-01-28T10:03:48Z</time>
            </trkpt>
            <trkpt lon="101.282872" lat="14.317095">
                <ele>47.240000</ele>
                <time>2017-01-28T10:05:13Z</time>
            </trkpt>
            <trkpt lon="101.282979" lat="14.317522">
                <ele>49.160000</ele>
                <time>2017-01-28T10:05:35Z</time>
            </trkpt>
            <trkpt lon="101.283672" lat="14.317631">
                <ele>49.650000</ele>
                <time>2017-01-28T10:07:11Z</time>
            </trkpt>
            <trkpt lon="101.283495" lat="14.317611">
                <ele>47.720000</ele>
                <time>2017-01-28T10:07:31Z</time>
            </trkpt>
            <trkpt lon="101.282656" lat="14.317370">
                <ele>49.160000</ele>
                <time>2017-01-28T10:09:06Z</time>
            </trkpt>
            <trkpt lon="101.282683" lat="14.316954">
                <ele>49.650000</ele>
                <time>2017-01-28T10:09:44Z</time>
            </trkpt>
            <trkpt lon="101.282032" lat="14.316887">
                <ele>49.650000</ele>
                <time>2017-01-28T10:10:08Z</time>
            </trkpt>
            <trkpt lon="101.281747" lat="14.315527">
                <ele>52.530000</ele>
                <time>2017-01-28T10:12:22Z</time>
            </trkpt>
            <trkpt lon="101.281742" lat="14.316149">
                <ele>53.010000</ele>
                <time>2017-01-28T10:12:56Z</time>
            </trkpt>
            <trkpt lon="101.281205" lat="14.315473">
                <ele>55.410000</ele>
                <time>2017-01-28T10:13:29Z</time>
            </trkpt>
            <trkpt lon="101.281114" lat="14.314616">
                <ele>54.450000</ele>
                <time>2017-01-28T10:13:52Z</time>
            </trkpt>
            <trkpt lon="101.281450" lat="14.313488">
                <ele>52.530000</ele>
                <time>2017-01-28T10:14:21Z</time>
            </trkpt>
            <trkpt lon="101.280722" lat="14.313376">
                <ele>53.010000</ele>
                <time>2017-01-28T10:14:41Z</time>
            </trkpt>
            <trkpt lon="101.278499" lat="14.314860">
                <ele>65.510000</ele>
                <time>2017-01-28T10:15:57Z</time>
            </trkpt>
            <trkpt lon="101.277350" lat="14.315977">
                <ele>65.510000</ele>
                <time>2017-01-28T10:16:37Z</time>
            </trkpt>
            <trkpt lon="101.275441" lat="14.316695">
                <ele>72.720000</ele>
                <time>2017-01-28T10:17:33Z</time>
            </trkpt>
            <trkpt lon="101.274533" lat="14.317295">
                <ele>73.200000</ele>
                <time>2017-01-28T10:18:09Z</time>
            </trkpt>
            <trkpt lon="101.274633" lat="14.318449">
                <ele>70.310000</ele>
                <time>2017-01-28T10:19:35Z</time>
            </trkpt>
        </trkseg>
    </trk>
</gpx>